sensor_id;sensor_type;location;lat;lon;timestamp;temperature;humidity
34574;DHT22;20809;49.594;8.734;2023-02-28T00:02:43;-0.80;99.90
34574;DHT22;20809;49.594;8.734;2023-02-28T00:05:44;-0.80;99.90
34574;DHT22;20809;49.594;8.734;2023-02-28T00:08:45;-0.70;99.90
34574;DHT22;20809;49.594;8.734;2023-02-28T00:11:46;-0.70;99.90
34574;DHT22;20809;49.594;8.734;2023-02-28T00:14:47;-0.70;99.90
34574;DHT22;20809;49.594;8.734;2023-02-28T00:17:47;-0.60;99.90
34574;DHT22;20809;49.594;8.734;2023-02-28T00:20:48;-0.70;99.90
34574;DHT22;20809;49.594;8.734;2023-02-28T00:23:49;-0.70;99.90
34574;DHT22;20809;49.594;8.734;2023-02-28T00:26:50;-0.70;99.90
34574;DHT22;20809;49.594;8.734;2023-02-28T00:29:51;-0.80;99.90
34574;DHT22;20809;49.594;8.734;2023-02-28T00:32:51;-0.90;99.90
34574;DHT22;20809;49.594;8.734;2023-02-28T00:35:57;-1.00;99.90
34574;DHT22;20809;49.594;8.734;2023-02-28T00:39:01;-1.00;99.90
34574;DHT22;20809;49.594;8.734;2023-02-28T00:42:02;-1.10;99.90
34574;DHT22;20809;49.594;8.734;2023-02-28T00:45:04;-1.10;99.90
34574;DHT22;20809;49.594;8.734;2023-02-28T00:48:05;-1.10;99.90
34574;DHT22;20809;49.594;8.734;2023-02-28T00:51:06;-1.10;99.90
34574;DHT22;20809;49.594;8.734;2023-02-28T00:54:07;-1.10;99.90
34574;DHT22;20809;49.594;8.734;2023-02-28T00:57:08;-1.20;99.90
34574;DHT22;20809;49.594;8.734;2023-02-28T01:00:09;-1.20;99.90
34574;DHT22;20809;49.594;8.734;2023-02-28T01:03:10;-1.30;99.90
34574;DHT22;20809;49.594;8.734;2023-02-28T01:06:10;-1.30;99.90
34574;DHT22;20809;49.594;8.734;2023-02-28T01:09:12;-1.30;99.90
34574;DHT22;20809;49.594;8.734;2023-02-28T01:12:12;-1.30;99.90
34574;DHT22;20809;49.594;8.734;2023-02-28T01:15:13;-1.40;99.90
34574;DHT22;20809;49.594;8.734;2023-02-28T01:18:14;-1.40;99.90
34574;DHT22;20809;49.594;8.734;2023-02-28T01:21:16;-1.40;99.90
34574;DHT22;20809;49.594;8.734;2023-02-28T01:24:17;-1.50;99.90
34574;DHT22;20809;49.594;8.734;2023-02-28T01:27:21;-1.40;99.90
34574;DHT22;20809;49.594;8.734;2023-02-28T01:30:22;-1.50;99.90
34574;DHT22;20809;49.594;8.734;2023-02-28T01:33:23;-1.50;99.90
34574;DHT22;20809;49.594;8.734;2023-02-28T01:36:24;-1.50;99.90
34574;DHT22;20809;49.594;8.734;2023-02-28T01:39:26;-1.50;99.90
34574;DHT22;20809;49.594;8.734;2023-02-28T01:42:27;-1.60;99.90
34574;DHT22;20809;49.594;8.734;2023-02-28T01:45:30;-1.60;99.90
34574;DHT22;20809;49.594;8.734;2023-02-28T01:48:36;-1.60;99.90
34574;DHT22;20809;49.594;8.734;2023-02-28T01:51:48;-1.60;99.90
34574;DHT22;20809;49.594;8.734;2023-02-28T01:54:53;-1.60;99.90
34574;DHT22;20809;49.594;8.734;2023-02-28T01:59:13;-1.60;99.90
34574;DHT22;20809;49.594;8.734;2023-02-28T02:02:17;-1.70;99.90
34574;DHT22;20809;49.594;8.734;2023-02-28T02:05:21;-1.70;99.90
34574;DHT22;20809;49.594;8.734;2023-02-28T02:08:26;-1.70;99.90
34574;DHT22;20809;49.594;8.734;2023-02-28T02:11:29;-1.70;99.90
34574;DHT22;20809;49.594;8.734;2023-02-28T02:14:57;-1.80;99.90
34574;DHT22;20809;49.594;8.734;2023-02-28T02:18:11;-1.70;99.90
34574;DHT22;20809;49.594;8.734;2023-02-28T02:31:51;-1.80;99.90
34574;DHT22;20809;49.594;8.734;2023-02-28T02:42:03;-1.90;99.90
34574;DHT22;20809;49.594;8.734;2023-02-28T02:44:46;-1.90;99.90
34574;DHT22;20809;49.594;8.734;2023-02-28T02:47:50;-1.90;99.90
34574;DHT22;20809;49.594;8.734;2023-02-28T02:50:55;-2.00;99.90
34574;DHT22;20809;49.594;8.734;2023-02-28T02:53:58;-2.00;99.90
34574;DHT22;20809;49.594;8.734;2023-02-28T02:57:04;-2.00;99.90
34574;DHT22;20809;49.594;8.734;2023-02-28T03:00:07;-2.00;99.90
34574;DHT22;20809;49.594;8.734;2023-02-28T03:03:10;-2.00;99.90
34574;DHT22;20809;49.594;8.734;2023-02-28T03:06:12;-1.90;99.90
34574;DHT22;20809;49.594;8.734;2023-02-28T03:09:13;-2.00;99.90
34574;DHT22;20809;49.594;8.734;2023-02-28T03:12:14;-2.00;99.90
34574;DHT22;20809;49.594;8.734;2023-02-28T03:15:31;-2.00;99.90
34574;DHT22;20809;49.594;8.734;2023-02-28T03:22:33;-2.00;99.90
34574;DHT22;20809;49.594;8.734;2023-02-28T03:25:50;-2.00;99.90
34574;DHT22;20809;49.594;8.734;2023-02-28T03:29:00;-2.00;99.90
34574;DHT22;20809;49.594;8.734;2023-02-28T03:32:14;-2.00;99.90
34574;DHT22;20809;49.594;8.734;2023-02-28T03:35:24;-2.10;99.90
34574;DHT22;20809;49.594;8.734;2023-02-28T03:38:37;-2.10;99.90
34574;DHT22;20809;49.594;8.734;2023-02-28T03:41:47;-2.20;99.90
34574;DHT22;20809;49.594;8.734;2023-02-28T03:44:59;-2.20;99.90
34574;DHT22;20809;49.594;8.734;2023-02-28T03:48:09;-2.20;99.90
34574;DHT22;20809;49.594;8.734;2023-02-28T03:51:16;-2.20;99.90
34574;DHT22;20809;49.594;8.734;2023-02-28T03:54:30;-2.20;99.90
34574;DHT22;20809;49.594;8.734;2023-02-28T03:57:39;-2.20;99.90
34574;DHT22;20809;49.594;8.734;2023-02-28T04:00:45;-2.30;99.90
34574;DHT22;20809;49.594;8.734;2023-02-28T04:03:47;-2.30;99.90
34574;DHT22;20809;49.594;8.734;2023-02-28T04:06:51;-2.30;99.90
34574;DHT22;20809;49.594;8.734;2023-02-28T04:09:53;-2.30;99.90
34574;DHT22;20809;49.594;8.734;2023-02-28T04:12:54;-2.30;99.90
34574;DHT22;20809;49.594;8.734;2023-02-28T04:15:55;-2.30;99.90
34574;DHT22;20809;49.594;8.734;2023-02-28T04:18:56;-2.30;99.90
34574;DHT22;20809;49.594;8.734;2023-02-28T04:22:02;-2.30;99.90
34574;DHT22;20809;49.594;8.734;2023-02-28T04:25:04;-2.30;99.90
34574;DHT22;20809;49.594;8.734;2023-02-28T04:28:06;-2.30;99.90
34574;DHT22;20809;49.594;8.734;2023-02-28T04:31:07;-2.40;99.90
34574;DHT22;20809;49.594;8.734;2023-02-28T04:34:08;-2.30;99.90
34574;DHT22;20809;49.594;8.734;2023-02-28T04:37:09;-2.30;99.90
34574;DHT22;20809;49.594;8.734;2023-02-28T04:40:10;-2.30;99.90
34574;DHT22;20809;49.594;8.734;2023-02-28T04:43:11;-2.40;99.90
34574;DHT22;20809;49.594;8.734;2023-02-28T04:46:12;-2.40;99.90
34574;DHT22;20809;49.594;8.734;2023-02-28T04:49:13;-2.30;99.90
34574;DHT22;20809;49.594;8.734;2023-02-28T04:52:14;-2.40;99.90
34574;DHT22;20809;49.594;8.734;2023-02-28T04:55:15;-2.30;99.90
34574;DHT22;20809;49.594;8.734;2023-02-28T04:58:16;-2.40;99.90
34574;DHT22;20809;49.594;8.734;2023-02-28T05:01:22;-2.40;99.90
34574;DHT22;20809;49.594;8.734;2023-02-28T05:04:23;-2.40;99.90
34574;DHT22;20809;49.594;8.734;2023-02-28T05:07:24;-2.40;99.90
34574;DHT22;20809;49.594;8.734;2023-02-28T05:10:25;-2.30;99.90
34574;DHT22;20809;49.594;8.734;2023-02-28T05:13:27;-2.30;99.90
34574;DHT22;20809;49.594;8.734;2023-02-28T05:16:28;-2.30;99.90
34574;DHT22;20809;49.594;8.734;2023-02-28T05:19:29;-2.30;99.90
34574;DHT22;20809;49.594;8.734;2023-02-28T05:22:30;-2.30;99.90
34574;DHT22;20809;49.594;8.734;2023-02-28T05:25:31;-2.30;99.90
34574;DHT22;20809;49.594;8.734;2023-02-28T05:28:32;-2.20;99.90
34574;DHT22;20809;49.594;8.734;2023-02-28T05:31:34;-2.30;99.90
34574;DHT22;20809;49.594;8.734;2023-02-28T05:34:36;-2.30;99.90
34574;DHT22;20809;49.594;8.734;2023-02-28T05:37:38;-2.30;99.90
34574;DHT22;20809;49.594;8.734;2023-02-28T05:40:40;-2.30;99.90
34574;DHT22;20809;49.594;8.734;2023-02-28T05:43:41;-2.30;99.90
34574;DHT22;20809;49.594;8.734;2023-02-28T05:46:42;-2.40;99.90
34574;DHT22;20809;49.594;8.734;2023-02-28T05:49:43;-2.40;99.90
34574;DHT22;20809;49.594;8.734;2023-02-28T05:52:48;-2.40;99.90
34574;DHT22;20809;49.594;8.734;2023-02-28T05:55:50;-2.40;99.90
34574;DHT22;20809;49.594;8.734;2023-02-28T05:58:51;-2.40;99.90
34574;DHT22;20809;49.594;8.734;2023-02-28T06:01:53;-2.30;99.90
34574;DHT22;20809;49.594;8.734;2023-02-28T06:04:54;-2.30;99.90
34574;DHT22;20809;49.594;8.734;2023-02-28T06:07:56;-2.30;99.90
34574;DHT22;20809;49.594;8.734;2023-02-28T06:10:57;-2.40;99.90
34574;DHT22;20809;49.594;8.734;2023-02-28T06:13:58;-2.30;99.90
34574;DHT22;20809;49.594;8.734;2023-02-28T06:17:01;-2.30;99.90
34574;DHT22;20809;49.594;8.734;2023-02-28T06:20:04;-2.40;99.90
34574;DHT22;20809;49.594;8.734;2023-02-28T06:23:06;-2.30;99.90
34574;DHT22;20809;49.594;8.734;2023-02-28T06:26:07;-2.30;99.90
34574;DHT22;20809;49.594;8.734;2023-02-28T06:29:08;-2.30;99.90
34574;DHT22;20809;49.594;8.734;2023-02-28T06:32:10;-2.30;99.90
34574;DHT22;20809;49.594;8.734;2023-02-28T06:35:11;-2.40;99.90
34574;DHT22;20809;49.594;8.734;2023-02-28T06:38:14;-2.40;99.90
34574;DHT22;20809;49.594;8.734;2023-02-28T06:41:15;-2.30;99.90
34574;DHT22;20809;49.594;8.734;2023-02-28T06:44:17;-2.30;99.90
34574;DHT22;20809;49.594;8.734;2023-02-28T06:47:18;-2.20;99.90
34574;DHT22;20809;49.594;8.734;2023-02-28T06:50:20;-2.20;99.90
34574;DHT22;20809;49.594;8.734;2023-02-28T06:53:22;-2.20;99.90
34574;DHT22;20809;49.594;8.734;2023-02-28T06:56:23;-2.10;99.90
34574;DHT22;20809;49.594;8.734;2023-02-28T06:59:31;-2.00;99.90
34574;DHT22;20809;49.594;8.734;2023-02-28T07:02:34;-1.90;99.90
34574;DHT22;20809;49.594;8.734;2023-02-28T07:05:38;-1.80;99.90
34574;DHT22;20809;49.594;8.734;2023-02-28T07:08:40;-1.70;99.90
34574;DHT22;20809;49.594;8.734;2023-02-28T07:11:43;-1.40;99.90
34574;DHT22;20809;49.594;8.734;2023-02-28T07:14:45;-1.10;99.90
34574;DHT22;20809;49.594;8.734;2023-02-28T07:17:46;-0.70;99.90
34574;DHT22;20809;49.594;8.734;2023-02-28T07:20:48;-0.40;99.90
34574;DHT22;20809;49.594;8.734;2023-02-28T07:23:49;-0.30;99.90
34574;DHT22;20809;49.594;8.734;2023-02-28T07:26:52;-0.40;99.90
34574;DHT22;20809;49.594;8.734;2023-02-28T07:29:53;-0.50;99.90
34574;DHT22;20809;49.594;8.734;2023-02-28T07:32:55;-0.60;99.90
34574;DHT22;20809;49.594;8.734;2023-02-28T07:36:11;-0.70;99.90
34574;DHT22;20809;49.594;8.734;2023-02-28T07:39:20;-0.60;99.90
34574;DHT22;20809;49.594;8.734;2023-02-28T07:42:21;-0.50;99.90
34574;DHT22;20809;49.594;8.734;2023-02-28T07:45:23;-0.50;99.90
34574;DHT22;20809;49.594;8.734;2023-02-28T07:48:24;-0.50;99.90
34574;DHT22;20809;49.594;8.734;2023-02-28T07:51:26;-0.40;99.90
34574;DHT22;20809;49.594;8.734;2023-02-28T07:54:28;-0.30;99.90
34574;DHT22;20809;49.594;8.734;2023-02-28T07:57:29;-0.20;99.90
34574;DHT22;20809;49.594;8.734;2023-02-28T08:00:31;-0.20;99.90
34574;DHT22;20809;49.594;8.734;2023-02-28T08:03:32;-0.10;99.90
34574;DHT22;20809;49.594;8.734;2023-02-28T08:06:35;0.00;99.90
34574;DHT22;20809;49.594;8.734;2023-02-28T08:09:36;0.10;99.90
34574;DHT22;20809;49.594;8.734;2023-02-28T08:12:37;0.10;99.90
34574;DHT22;20809;49.594;8.734;2023-02-28T08:15:41;0.20;99.90
34574;DHT22;20809;49.594;8.734;2023-02-28T08:18:43;0.20;99.90
34574;DHT22;20809;49.594;8.734;2023-02-28T08:21:45;0.20;99.90
34574;DHT22;20809;49.594;8.734;2023-02-28T08:24:46;0.30;99.90
34574;DHT22;20809;49.594;8.734;2023-02-28T08:27:51;0.50;99.90
34574;DHT22;20809;49.594;8.734;2023-02-28T08:30:56;0.60;99.90
34574;DHT22;20809;49.594;8.734;2023-02-28T08:33:58;0.70;99.90
34574;DHT22;20809;49.594;8.734;2023-02-28T08:37:00;0.80;99.90
34574;DHT22;20809;49.594;8.734;2023-02-28T08:40:01;0.80;99.90
34574;DHT22;20809;49.594;8.734;2023-02-28T08:43:05;0.90;99.90
34574;DHT22;20809;49.594;8.734;2023-02-28T08:46:07;1.00;99.90
34574;DHT22;20809;49.594;8.734;2023-02-28T08:49:10;1.00;99.90
34574;DHT22;20809;49.594;8.734;2023-02-28T08:52:12;1.20;99.90
34574;DHT22;20809;49.594;8.734;2023-02-28T08:55:13;1.10;99.90
34574;DHT22;20809;49.594;8.734;2023-02-28T08:58:14;1.30;99.90
34574;DHT22;20809;49.594;8.734;2023-02-28T09:01:18;1.40;99.90
34574;DHT22;20809;49.594;8.734;2023-02-28T09:04:19;1.40;99.90
34574;DHT22;20809;49.594;8.734;2023-02-28T09:07:21;1.40;99.90
34574;DHT22;20809;49.594;8.734;2023-02-28T09:10:23;1.60;99.90
34574;DHT22;20809;49.594;8.734;2023-02-28T09:13:25;1.70;99.90
34574;DHT22;20809;49.594;8.734;2023-02-28T09:16:27;1.60;99.90
34574;DHT22;20809;49.594;8.734;2023-02-28T09:19:29;1.80;99.90
34574;DHT22;20809;49.594;8.734;2023-02-28T09:22:31;1.80;99.90
34574;DHT22;20809;49.594;8.734;2023-02-28T09:25:35;2.00;99.90
34574;DHT22;20809;49.594;8.734;2023-02-28T09:28:38;2.00;99.90
34574;DHT22;20809;49.594;8.734;2023-02-28T09:31:42;2.00;99.90
34574;DHT22;20809;49.594;8.734;2023-02-28T09:34:45;2.30;99.90
34574;DHT22;20809;49.594;8.734;2023-02-28T09:37:46;2.50;99.90
34574;DHT22;20809;49.594;8.734;2023-02-28T09:41:00;2.50;99.90
34574;DHT22;20809;49.594;8.734;2023-02-28T09:44:03;2.50;99.90
34574;DHT22;20809;49.594;8.734;2023-02-28T09:47:17;2.60;99.90
34574;DHT22;20809;49.594;8.734;2023-02-28T09:50:32;2.60;99.90
34574;DHT22;20809;49.594;8.734;2023-02-28T09:53:37;2.70;99.90
34574;DHT22;20809;49.594;8.734;2023-02-28T09:56:43;2.60;99.90
34574;DHT22;20809;49.594;8.734;2023-02-28T10:00:07;2.50;99.90
34574;DHT22;20809;49.594;8.734;2023-02-28T10:03:34;2.60;99.90
34574;DHT22;20809;49.594;8.734;2023-02-28T10:06:46;2.60;99.90
34574;DHT22;20809;49.594;8.734;2023-02-28T10:09:55;2.80;99.90
34574;DHT22;20809;49.594;8.734;2023-02-28T10:13:00;2.80;99.90
34574;DHT22;20809;49.594;8.734;2023-02-28T10:16:08;2.80;99.90
34574;DHT22;20809;49.594;8.734;2023-02-28T10:26:12;3.00;99.90
34574;DHT22;20809;49.594;8.734;2023-02-28T10:29:14;2.80;99.90
34574;DHT22;20809;49.594;8.734;2023-02-28T10:32:32;2.60;99.90
34574;DHT22;20809;49.594;8.734;2023-02-28T10:35:35;2.70;99.90
34574;DHT22;20809;49.594;8.734;2023-02-28T10:38:37;2.70;99.90
34574;DHT22;20809;49.594;8.734;2023-02-28T10:41:44;2.70;99.90
34574;DHT22;20809;49.594;8.734;2023-02-28T10:44:46;2.80;99.90
34574;DHT22;20809;49.594;8.734;2023-02-28T10:47:57;3.20;99.90
34574;DHT22;20809;49.594;8.734;2023-02-28T10:50:59;3.30;99.90
34574;DHT22;20809;49.594;8.734;2023-02-28T10:54:02;3.30;99.90
34574;DHT22;20809;49.594;8.734;2023-02-28T11:00:22;3.30;99.90
34574;DHT22;20809;49.594;8.734;2023-02-28T11:03:36;3.40;99.90
34574;DHT22;20809;49.594;8.734;2023-02-28T11:06:37;3.40;99.90
34574;DHT22;20809;49.594;8.734;2023-02-28T11:09:40;3.30;99.90
34574;DHT22;20809;49.594;8.734;2023-02-28T11:12:44;3.10;99.90
34574;DHT22;20809;49.594;8.734;2023-02-28T11:15:54;3.20;99.90
34574;DHT22;20809;49.594;8.734;2023-02-28T11:18:55;3.20;99.90
34574;DHT22;20809;49.594;8.734;2023-02-28T11:22:00;3.20;99.90
34574;DHT22;20809;49.594;8.734;2023-02-28T11:25:13;3.20;99.90
34574;DHT22;20809;49.594;8.734;2023-02-28T11:28:43;3.20;99.90
34574;DHT22;20809;49.594;8.734;2023-02-28T11:32:10;3.50;99.90
34574;DHT22;20809;49.594;8.734;2023-02-28T11:35:26;3.50;99.90
34574;DHT22;20809;49.594;8.734;2023-02-28T11:38:28;3.70;99.90
34574;DHT22;20809;49.594;8.734;2023-02-28T11:41:53;3.80;99.90
34574;DHT22;20809;49.594;8.734;2023-02-28T11:49:10;4.30;99.90
34574;DHT22;20809;49.594;8.734;2023-02-28T11:52:21;4.10;99.90
34574;DHT22;20809;49.594;8.734;2023-02-28T11:55:38;3.70;99.90
34574;DHT22;20809;49.594;8.734;2023-02-28T11:58:55;3.60;99.90
34574;DHT22;20809;49.594;8.734;2023-02-28T12:05:36;3.40;99.90
34574;DHT22;20809;49.594;8.734;2023-02-28T12:19:10;3.90;99.90
34574;DHT22;20809;49.594;8.734;2023-02-28T12:28:59;4.10;99.90
34574;DHT22;20809;49.594;8.734;2023-02-28T12:32:18;4.00;99.90
34574;DHT22;20809;49.594;8.734;2023-02-28T12:35:25;4.00;99.90
34574;DHT22;20809;49.594;8.734;2023-02-28T12:38:38;4.10;99.90
34574;DHT22;20809;49.594;8.734;2023-02-28T12:42:03;4.00;99.90
34574;DHT22;20809;49.594;8.734;2023-02-28T12:45:23;4.00;99.90
34574;DHT22;20809;49.594;8.734;2023-02-28T12:48:46;4.20;99.90
34574;DHT22;20809;49.594;8.734;2023-02-28T12:51:49;4.20;99.90
34574;DHT22;20809;49.594;8.734;2023-02-28T12:55:08;4.20;99.90
34574;DHT22;20809;49.594;8.734;2023-02-28T13:01:47;4.20;99.90
34574;DHT22;20809;49.594;8.734;2023-02-28T13:11:28;4.40;99.90
34574;DHT22;20809;49.594;8.734;2023-02-28T13:14:36;4.50;99.90
34574;DHT22;20809;49.594;8.734;2023-02-28T13:17:39;4.70;99.90
34574;DHT22;20809;49.594;8.734;2023-02-28T13:20:48;4.60;99.90
34574;DHT22;20809;49.594;8.734;2023-02-28T13:27:19;4.90;99.90
34574;DHT22;20809;49.594;8.734;2023-02-28T13:40:29;4.60;99.90
34574;DHT22;20809;49.594;8.734;2023-02-28T13:53:51;4.60;99.90
34574;DHT22;20809;49.594;8.734;2023-02-28T13:57:11;4.50;99.90
34574;DHT22;20809;49.594;8.734;2023-02-28T14:00:28;4.60;99.90
34574;DHT22;20809;49.594;8.734;2023-02-28T14:04:04;4.50;99.90
34574;DHT22;20809;49.594;8.734;2023-02-28T14:07:08;4.50;99.90
34574;DHT22;20809;49.594;8.734;2023-02-28T14:10:31;4.60;99.90
34574;DHT22;20809;49.594;8.734;2023-02-28T14:16:46;4.30;99.90
34574;DHT22;20809;49.594;8.734;2023-02-28T14:19:48;4.20;99.90
34574;DHT22;20809;49.594;8.734;2023-02-28T14:22:54;4.10;99.90
34574;DHT22;20809;49.594;8.734;2023-02-28T14:26:03;4.10;99.90
34574;DHT22;20809;49.594;8.734;2023-02-28T14:39:07;4.60;99.90
34574;DHT22;20809;49.594;8.734;2023-02-28T14:45:35;4.50;99.90
34574;DHT22;20809;49.594;8.734;2023-02-28T14:48:38;4.50;99.90
34574;DHT22;20809;49.594;8.734;2023-02-28T14:51:39;4.40;99.90
34574;DHT22;20809;49.594;8.734;2023-02-28T14:54:41;4.40;99.90
34574;DHT22;20809;49.594;8.734;2023-02-28T14:57:52;4.30;99.90
34574;DHT22;20809;49.594;8.734;2023-02-28T15:00:56;4.40;99.90
34574;DHT22;20809;49.594;8.734;2023-02-28T15:04:03;4.40;99.90
34574;DHT22;20809;49.594;8.734;2023-02-28T15:07:09;4.20;99.90
34574;DHT22;20809;49.594;8.734;2023-02-28T15:10:20;4.20;99.90
34574;DHT22;20809;49.594;8.734;2023-02-28T15:13:23;4.40;99.90
34574;DHT22;20809;49.594;8.734;2023-02-28T15:16:35;4.50;99.90
34574;DHT22;20809;49.594;8.734;2023-02-28T15:19:41;4.50;99.90
34574;DHT22;20809;49.594;8.734;2023-02-28T15:22:47;4.60;99.90
34574;DHT22;20809;49.594;8.734;2023-02-28T15:25:50;4.60;99.90
34574;DHT22;20809;49.594;8.734;2023-02-28T15:28:58;4.60;99.90
34574;DHT22;20809;49.594;8.734;2023-02-28T15:32:04;4.60;99.90
34574;DHT22;20809;49.594;8.734;2023-02-28T15:35:28;4.50;99.90
34574;DHT22;20809;49.594;8.734;2023-02-28T15:38:34;4.60;99.90
34574;DHT22;20809;49.594;8.734;2023-02-28T15:41:37;4.80;99.90
34574;DHT22;20809;49.594;8.734;2023-02-28T15:44:41;4.90;99.90
34574;DHT22;20809;49.594;8.734;2023-02-28T15:47:45;4.80;99.90
34574;DHT22;20809;49.594;8.734;2023-02-28T15:50:55;4.80;99.90
34574;DHT22;20809;49.594;8.734;2023-02-28T15:54:00;4.80;99.90
34574;DHT22;20809;49.594;8.734;2023-02-28T15:57:05;4.80;99.90
34574;DHT22;20809;49.594;8.734;2023-02-28T16:00:14;4.70;99.90
34574;DHT22;20809;49.594;8.734;2023-02-28T16:03:34;4.60;99.90
34574;DHT22;20809;49.594;8.734;2023-02-28T16:07:02;4.60;99.90
34574;DHT22;20809;49.594;8.734;2023-02-28T16:10:05;4.70;99.90
34574;DHT22;20809;49.594;8.734;2023-02-28T16:13:06;4.70;99.90
34574;DHT22;20809;49.594;8.734;2023-02-28T16:16:07;4.60;99.90
34574;DHT22;20809;49.594;8.734;2023-02-28T16:19:11;4.70;99.90
34574;DHT22;20809;49.594;8.734;2023-02-28T16:22:12;4.80;99.90
34574;DHT22;20809;49.594;8.734;2023-02-28T16:25:18;4.70;99.90
34574;DHT22;20809;49.594;8.734;2023-02-28T16:28:26;4.70;99.90
34574;DHT22;20809;49.594;8.734;2023-02-28T16:31:37;4.60;99.90
34574;DHT22;20809;49.594;8.734;2023-02-28T16:34:38;4.60;99.90
34574;DHT22;20809;49.594;8.734;2023-02-28T16:37:39;4.50;99.90
34574;DHT22;20809;49.594;8.734;2023-02-28T16:40:40;4.40;99.90
34574;DHT22;20809;49.594;8.734;2023-02-28T16:43:41;4.30;99.90
34574;DHT22;20809;49.594;8.734;2023-02-28T16:46:42;4.20;99.90
34574;DHT22;20809;49.594;8.734;2023-02-28T16:49:43;4.10;99.90
34574;DHT22;20809;49.594;8.734;2023-02-28T16:52:44;4.10;99.90
34574;DHT22;20809;49.594;8.734;2023-02-28T16:55:45;3.90;99.90
34574;DHT22;20809;49.594;8.734;2023-02-28T16:58:46;3.90;99.90
34574;DHT22;20809;49.594;8.734;2023-02-28T17:01:47;3.70;99.90
34574;DHT22;20809;49.594;8.734;2023-02-28T17:04:49;3.60;99.90
34574;DHT22;20809;49.594;8.734;2023-02-28T17:07:50;3.60;99.90
34574;DHT22;20809;49.594;8.734;2023-02-28T17:10:51;3.50;99.90
34574;DHT22;20809;49.594;8.734;2023-02-28T17:13:51;3.40;99.90
34574;DHT22;20809;49.594;8.734;2023-02-28T17:16:54;3.30;99.90
34574;DHT22;20809;49.594;8.734;2023-02-28T17:19:55;3.30;99.90
34574;DHT22;20809;49.594;8.734;2023-02-28T17:22:56;3.10;99.90
34574;DHT22;20809;49.594;8.734;2023-02-28T17:25:57;3.10;99.90
34574;DHT22;20809;49.594;8.734;2023-02-28T17:28:58;3.10;99.90
34574;DHT22;20809;49.594;8.734;2023-02-28T17:31:58;3.10;99.90
34574;DHT22;20809;49.594;8.734;2023-02-28T17:34:59;3.00;99.90
34574;DHT22;20809;49.594;8.734;2023-02-28T17:38:00;2.80;99.90
34574;DHT22;20809;49.594;8.734;2023-02-28T17:41:01;2.60;99.90
34574;DHT22;20809;49.594;8.734;2023-02-28T17:44:01;2.50;99.90
34574;DHT22;20809;49.594;8.734;2023-02-28T17:47:02;2.40;99.90
34574;DHT22;20809;49.594;8.734;2023-02-28T17:50:03;2.40;99.90
34574;DHT22;20809;49.594;8.734;2023-02-28T17:53:04;2.40;99.90
34574;DHT22;20809;49.594;8.734;2023-02-28T17:56:08;2.30;99.90
34574;DHT22;20809;49.594;8.734;2023-02-28T17:59:11;2.20;99.90
34574;DHT22;20809;49.594;8.734;2023-02-28T18:02:13;2.20;99.90
34574;DHT22;20809;49.594;8.734;2023-02-28T18:05:14;2.10;99.90
34574;DHT22;20809;49.594;8.734;2023-02-28T18:08:15;2.20;99.90
34574;DHT22;20809;49.594;8.734;2023-02-28T18:11:20;2.20;99.90
34574;DHT22;20809;49.594;8.734;2023-02-28T18:14:23;2.20;99.90
34574;DHT22;20809;49.594;8.734;2023-02-28T18:17:25;2.20;99.90
34574;DHT22;20809;49.594;8.734;2023-02-28T18:20:26;2.20;99.90
34574;DHT22;20809;49.594;8.734;2023-02-28T18:23:28;2.10;99.90
34574;DHT22;20809;49.594;8.734;2023-02-28T18:26:29;2.10;99.90
34574;DHT22;20809;49.594;8.734;2023-02-28T18:29:30;2.00;99.90
34574;DHT22;20809;49.594;8.734;2023-02-28T18:32:32;1.90;99.90
34574;DHT22;20809;49.594;8.734;2023-02-28T18:35:32;1.80;99.90
34574;DHT22;20809;49.594;8.734;2023-02-28T18:38:36;1.70;99.90
34574;DHT22;20809;49.594;8.734;2023-02-28T18:41:37;1.50;99.90
34574;DHT22;20809;49.594;8.734;2023-02-28T18:44:38;1.30;99.90
34574;DHT22;20809;49.594;8.734;2023-02-28T18:47:39;1.20;99.90
34574;DHT22;20809;49.594;8.734;2023-02-28T18:50:40;1.30;99.90
34574;DHT22;20809;49.594;8.734;2023-02-28T18:53:42;1.20;99.90
34574;DHT22;20809;49.594;8.734;2023-02-28T18:56:44;1.20;99.90
34574;DHT22;20809;49.594;8.734;2023-02-28T18:59:45;1.10;99.90
34574;DHT22;20809;49.594;8.734;2023-02-28T19:02:45;1.00;99.90
34574;DHT22;20809;49.594;8.734;2023-02-28T19:05:46;1.00;99.90
34574;DHT22;20809;49.594;8.734;2023-02-28T19:08:47;1.00;99.90
34574;DHT22;20809;49.594;8.734;2023-02-28T19:11:52;1.00;99.90
34574;DHT22;20809;49.594;8.734;2023-02-28T19:14:53;0.90;99.90
34574;DHT22;20809;49.594;8.734;2023-02-28T19:17:59;0.80;99.90
34574;DHT22;20809;49.594;8.734;2023-02-28T19:21:00;0.80;99.90
34574;DHT22;20809;49.594;8.734;2023-02-28T19:24:02;0.70;99.90
34574;DHT22;20809;49.594;8.734;2023-02-28T19:27:02;0.70;99.90
34574;DHT22;20809;49.594;8.734;2023-02-28T19:30:04;0.60;99.90
34574;DHT22;20809;49.594;8.734;2023-02-28T19:33:05;0.50;99.90
34574;DHT22;20809;49.594;8.734;2023-02-28T19:36:07;0.40;99.90
34574;DHT22;20809;49.594;8.734;2023-02-28T19:39:08;0.30;99.90
34574;DHT22;20809;49.594;8.734;2023-02-28T19:42:14;0.20;99.90
34574;DHT22;20809;49.594;8.734;2023-02-28T19:45:15;0.10;99.90
34574;DHT22;20809;49.594;8.734;2023-02-28T19:48:15;0.10;99.90
34574;DHT22;20809;49.594;8.734;2023-02-28T19:51:16;0.10;99.90
34574;DHT22;20809;49.594;8.734;2023-02-28T19:54:18;0.10;99.90
34574;DHT22;20809;49.594;8.734;2023-02-28T19:57:19;0.10;99.90
34574;DHT22;20809;49.594;8.734;2023-02-28T20:00:20;0.10;99.90
34574;DHT22;20809;49.594;8.734;2023-02-28T20:03:21;0.10;99.90
34574;DHT22;20809;49.594;8.734;2023-02-28T20:06:22;0.00;99.90
34574;DHT22;20809;49.594;8.734;2023-02-28T20:09:23;0.00;99.90
34574;DHT22;20809;49.594;8.734;2023-02-28T20:12:23;0.00;99.90
34574;DHT22;20809;49.594;8.734;2023-02-28T20:15:26;0.00;99.90
34574;DHT22;20809;49.594;8.734;2023-02-28T20:18:27;0.00;99.90
34574;DHT22;20809;49.594;8.734;2023-02-28T20:21:28;-0.10;99.90
34574;DHT22;20809;49.594;8.734;2023-02-28T20:24:29;-0.10;99.90
34574;DHT22;20809;49.594;8.734;2023-02-28T20:27:30;-0.20;99.90
34574;DHT22;20809;49.594;8.734;2023-02-28T20:30:32;-0.30;99.90
34574;DHT22;20809;49.594;8.734;2023-02-28T20:33:33;-0.40;99.90
34574;DHT22;20809;49.594;8.734;2023-02-28T20:36:33;-0.40;99.90
34574;DHT22;20809;49.594;8.734;2023-02-28T20:39:34;-0.50;99.90
34574;DHT22;20809;49.594;8.734;2023-02-28T20:42:35;-0.50;99.90
34574;DHT22;20809;49.594;8.734;2023-02-28T20:45:36;-0.40;99.90
34574;DHT22;20809;49.594;8.734;2023-02-28T20:48:37;-0.40;99.90
34574;DHT22;20809;49.594;8.734;2023-02-28T20:51:38;-0.40;99.90
34574;DHT22;20809;49.594;8.734;2023-02-28T20:54:41;-0.50;99.90
34574;DHT22;20809;49.594;8.734;2023-02-28T20:57:42;-0.60;99.90
34574;DHT22;20809;49.594;8.734;2023-02-28T21:00:42;-0.60;99.90
34574;DHT22;20809;49.594;8.734;2023-02-28T21:03:45;-0.60;99.90
34574;DHT22;20809;49.594;8.734;2023-02-28T21:06:47;-0.60;99.90
34574;DHT22;20809;49.594;8.734;2023-02-28T21:09:48;-0.60;99.90
34574;DHT22;20809;49.594;8.734;2023-02-28T21:12:49;-0.50;99.90
34574;DHT22;20809;49.594;8.734;2023-02-28T21:15:53;-0.40;99.90
34574;DHT22;20809;49.594;8.734;2023-02-28T21:18:54;-0.40;99.90
34574;DHT22;20809;49.594;8.734;2023-02-28T21:21:55;-0.30;99.90
34574;DHT22;20809;49.594;8.734;2023-02-28T21:24:56;-0.40;99.90